Terminal Aerodrome Forecast
Issued by NWS

Home | Current Version | Previous Version | Text Only | Print | Product List | Glossary On
Versions: 1 2 3 4 5 6 7 8 9 10 11 12 13 14 15 16 17
000
FTUS41 KBGM 050856 AAA
TAFELM
TAF AMD
KELM 050856Z 0509/0606 VRB03KT P6SM SCT100
      TEMPO 0510/0512 3SM BR SCT003
     FM051400 30010G18KT P6SM BKN045
     FM052300 VRB03KT P6SM SCT250=

USA.gov is the U.S. government's official web portal to all federal, state and local government web resources and services.